Time;durP1;ratioP1;P1;durP2;ratioP2;P2;SDS_P1;SDS_P2;PMS_P1;PMS_P2;Temp;Humidity;BMP_temperature;BMP_pressure;BME280_temperature;BME280_humidity;BME280_pressure;Samples;Min_cycle;Max_cycle;Signal;HPM_P1;HPM_P2
2023/05/30 00:02:07;;;;;;;2.85;2.15;;;;;;;12.67;100.00;97788.59;1702093;75;749112;-71
2023/05/30 00:04:39;;;;;;;4.15;2.20;;;;;;;12.58;100.00;97787.53;1711014;75;688936;-74
2023/05/30 00:07:10;;;;;;;2.40;1.80;;;;;;;12.62;100.00;97784.56;1689492;75;1745183;-71
2023/05/30 00:09:41;;;;;;;2.10;1.90;;;;;;;12.58;100.00;97786.78;1711501;75;669498;-69
2023/05/30 00:12:12;;;;;;;3.30;2.50;;;;;;;12.48;100.00;97786.22;1702121;75;753668;-69
2023/05/30 00:14:47;;;;;;;2.90;2.30;;;;;;;12.43;100.00;97786.13;1711127;75;677265;-68
2023/05/30 00:17:20;;;;;;;2.25;1.90;;;;;;;12.45;100.00;97780.91;1701904;75;753015;-71
2023/05/30 00:19:52;;;;;;;2.30;1.90;;;;;;;12.43;100.00;97775.16;1711487;75;670262;-68
2023/05/30 00:22:22;;;;;;;2.20;1.90;;;;;;;12.37;100.00;97783.34;1702462;75;745699;-71
2023/05/30 00:24:53;;;;;;;2.20;2.00;;;;;;;12.29;100.00;97785.78;1710705;75;693826;-69
2023/05/30 00:27:23;;;;;;;2.40;2.15;;;;;;;12.31;100.00;97783.31;1677825;75;2713110;-71
2023/05/30 00:29:56;;;;;;;2.40;2.05;;;;;;;12.27;100.00;97785.50;1660731;75;4900010;-70
2023/05/30 00:32:26;;;;;;;3.10;2.10;;;;;;;12.20;100.00;97785.19;1699295;75;946234;-72
2023/05/30 00:34:56;;;;;;;2.65;2.20;;;;;;;12.21;100.00;97786.69;1710817;75;669915;-69
2023/05/30 00:37:26;;;;;;;2.65;2.30;;;;;;;12.20;100.00;97788.66;1702107;75;737316;-69
2023/05/30 00:39:57;;;;;;;3.65;2.75;;;;;;;12.08;100.00;97792.53;1711197;75;671901;-71
2023/05/30 00:42:29;;;;;;;2.50;2.10;;;;;;;12.07;100.00;97791.75;1700017;75;858944;-69
2023/05/30 00:45:03;;;;;;;2.70;2.30;;;;;;;12.00;100.00;97794.19;1708850;75;860091;-71
2023/05/30 00:47:33;;;;;;;3.60;2.70;;;;;;;12.01;100.00;97781.97;1702394;75;745332;-68
2023/05/30 00:50:04;;;;;;;2.50;2.20;;;;;;;12.04;100.00;97786.50;1710426;75;675610;-72
2023/05/30 00:52:34;;;;;;;2.85;2.10;;;;;;;11.99;100.00;97785.19;1700330;75;852067;-69
2023/05/30 00:55:05;;;;;;;2.25;2.00;;;;;;;11.97;100.00;97784.91;1697883;75;1813221;-72
2023/05/30 00:57:36;;;;;;;2.35;1.90;;;;;;;11.96;100.00;97791.66;1701833;75;749252;-70
2023/05/30 01:00:12;;;;;;;3.00;2.50;;;;;;;11.91;100.00;97790.34;1697643;75;1816411;-70
2023/05/30 01:02:44;;;;;;;3.40;2.30;;;;;;;11.78;100.00;97784.41;1687504;75;1922809;-73
2023/05/30 01:05:15;;;;;;;2.75;2.30;;;;;;;11.74;100.00;97789.38;1697939;75;1784345;-70
2023/05/30 01:07:45;;;;;;;2.95;2.35;;;;;;;11.67;100.00;97782.31;1702070;75;733085;-68
2023/05/30 01:10:17;;;;;;;3.90;2.95;;;;;;;11.62;100.00;97785.75;1696444;75;1908030;-70
2023/05/30 01:13:01;;;;;;;3.70;3.00;;;;;;;11.54;100.00;97781.13;1688283;75;1869442;-73
2023/05/30 01:15:36;;;;;;;3.60;3.00;;;;;;;11.66;100.00;97782.78;1699578;75;976859;-69
2023/05/30 01:18:14;;;;;;;3.05;2.75;;;;;;;11.66;100.00;97788.25;1709088;75;875063;-71
2023/05/30 01:20:48;;;;;;;2.90;2.30;;;;;;;11.59;100.00;97789.41;1703417;75;673383;-70
2023/05/30 01:23:44;;;;;;;2.45;1.85;;;;;;;11.57;100.00;97796.63;1709521;75;821033;-69
2023/05/30 01:26:36;;;;;;;2.60;2.20;;;;;;;11.52;100.00;97798.06;1699818;75;918115;-73
2023/05/30 01:29:14;;;;;;;2.70;1.90;;;;;;;11.52;100.00;97792.59;1676088;67;2975734;-72
2023/05/30 01:31:45;;;;;;;;;;;;;;;11.47;100.00;97790.50;1710809;75;676328;-69
2023/05/30 01:34:16;;;;;;;2.60;1.90;;;;;;;11.43;100.00;97795.47;1701338;75;761113;-69
2023/05/30 01:36:48;;;;;;;2.00;1.60;;;;;;;11.41;100.00;97801.41;1711167;75;675666;-72
2023/05/30 01:39:18;;;;;;;2.10;1.70;;;;;;;11.38;100.00;97798.88;1700263;75;810486;-71
2023/05/30 01:42:11;;;;;;;2.25;1.70;;;;;;;11.35;100.00;97791.59;1709202;75;843780;-68
2023/05/30 01:44:54;;;;;;;2.05;1.70;;;;;;;11.22;100.00;97791.91;1690322;75;1693656;-72
2023/05/30 01:47:35;;;;;;;1.70;1.60;;;;;;;11.23;100.00;97798.91;1677595;75;2824802;-69
2023/05/30 01:50:19;;;;;;;2.60;1.80;;;;;;;11.14;100.00;97796.31;1710903;75;713679;-70
2023/05/30 01:52:55;;;;;;;4.30;2.60;;;;;;;11.08;100.00;97794.22;1675965;75;2890918;-69
2023/05/30 01:55:28;;;;;;;3.00;2.65;;;;;;;11.12;100.00;97796.03;1703128;75;675082;-71
2023/05/30 01:58:00;;;;;;;4.00;2.50;;;;;;;11.06;100.00;97785.72;1710889;75;679023;-69
2023/05/30 02:00:34;;;;;;;4.00;2.50;;;;;;;10.99;100.00;97782.59;1702659;75;678191;-68
2023/05/30 02:03:04;;;;;;;2.40;2.00;;;;;;;11.04;100.00;97779.97;1711073;75;677891;-70
2023/05/30 02:05:34;;;;;;;3.10;2.20;;;;;;;11.00;100.00;97778.66;1703463;75;676054;-69
2023/05/30 02:08:05;;;;;;;3.70;2.70;;;;;;;10.94;100.00;97777.81;1711330;75;669450;-70
2023/05/30 02:10:34;;;;;;;;;;;;;;;10.92;100.00;97783.00;1700451;75;937392;-71
2023/05/30 02:13:05;;;;;;;3.10;2.30;;;;;;;10.91;100.00;97779.50;1711136;75;683797;-71
2023/05/30 02:15:37;;;;;;;2.70;2.20;;;;;;;10.92;100.00;97780.25;1703860;75;674247;-69
2023/05/30 02:18:10;;;;;;;3.65;2.45;;;;;;;10.85;100.00;97782.16;1697937;75;1827715;-72
2023/05/30 02:20:40;;;;;;;3.20;2.40;;;;;;;10.82;100.00;97776.88;1702736;75;680216;-71
2023/05/30 02:23:10;;;;;;;2.50;2.00;;;;;;;10.84;100.00;97777.91;1711309;75;673893;-69
2023/05/30 02:25:40;;;;;;;3.10;2.30;;;;;;;10.80;100.00;97791.06;1702928;75;682827;-69
2023/05/30 02:28:10;;;;;;;2.85;2.15;;;;;;;10.77;100.00;97785.75;1699289;75;1704441;-71
2023/05/30 02:30:44;;;;;;;1.90;1.70;;;;;;;10.74;100.00;97790.19;1703543;75;688741;-70
2023/05/30 02:33:14;;;;;;;2.40;2.00;;;;;;;10.68;100.00;97785.84;1711336;75;728725;-72
2023/05/30 02:35:44;;;;;;;2.80;2.40;;;;;;;10.65;100.00;97784.81;1700575;75;931926;-72
2023/05/30 02:38:14;;;;;;;2.90;2.30;;;;;;;10.55;100.00;97775.94;1711952;75;676036;-70
2023/05/30 02:40:44;;;;;;;2.50;2.10;;;;;;;10.55;100.00;97780.69;1701430;75;877793;-69
2023/05/30 02:43:16;;;;;;;3.15;2.80;;;;;;;10.58;100.00;97785.19;1708992;75;913546;-69
2023/05/30 02:45:48;;;;;;;4.10;2.50;;;;;;;10.58;100.00;97785.97;1703038;75;680333;-71
2023/05/30 02:48:19;;;;;;;3.30;2.40;;;;;;;10.56;100.00;97776.69;1711002;75;674777;-68
2023/05/30 02:50:49;;;;;;;3.70;2.20;;;;;;;10.53;100.00;97783.88;1703645;75;675184;-71
2023/05/30 02:53:19;;;;;;;2.80;2.00;;;;;;;10.52;100.00;97781.63;1709638;75;787029;-72
2023/05/30 02:55:50;;;;;;;2.80;2.05;;;;;;;10.49;100.00;97788.81;1702409;75;758644;-72
2023/05/30 02:58:20;;;;;;;2.60;2.20;;;;;;;10.47;100.00;97785.78;1711546;75;670354;-69
2023/05/30 03:00:53;;;;;;;2.35;2.15;;;;;;;10.46;100.00;97781.50;1701176;75;770790;-71
2023/05/30 03:03:24;;;;;;;2.40;2.10;;;;;;;10.48;100.00;97790.00;1711524;75;680817;-69
2023/05/30 03:05:57;;;;;;;2.55;2.25;;;;;;;10.38;100.00;97789.34;1700483;75;791211;-71
2023/05/30 03:08:28;;;;;;;2.40;1.70;;;;;;;10.36;100.00;97782.84;1711324;75;679328;-72
2023/05/30 03:10:58;;;;;;;2.85;2.10;;;;;;;10.36;100.00;97780.84;1701424;75;760142;-71
2023/05/30 03:13:28;;;;;;;2.60;2.00;;;;;;;10.34;100.00;97788.03;1711494;75;671720;-73
2023/05/30 03:16:01;;;;;;;2.10;1.70;;;;;;;10.37;100.00;97792.56;1700824;75;792832;-70
2023/05/30 03:18:31;;;;;;;2.35;1.80;;;;;;;10.33;100.00;97790.00;1710779;75;687543;-71
2023/05/30 03:21:02;;;;;;;2.65;2.20;;;;;;;10.34;100.00;97782.56;1702326;75;749600;-69
2023/05/30 03:23:32;;;;;;;2.30;2.10;;;;;;;10.24;100.00;97785.34;1711358;75;710711;-70
2023/05/30 03:26:03;;;;;;;2.75;2.30;;;;;;;10.28;100.00;97789.88;1702102;75;743696;-74
2023/05/30 03:28:33;;;;;;;4.15;2.40;;;;;;;10.30;100.00;97787.47;1711520;75;681422;-68
2023/05/30 03:31:06;;;;;;;3.25;2.45;;;;;;;10.29;100.00;97794.91;1700569;75;812867;-69
2023/05/30 03:33:36;;;;;;;2.15;1.85;;;;;;;10.29;100.00;97789.44;1711673;75;674020;-70
2023/05/30 03:36:07;;;;;;;3.25;2.60;;;;;;;10.27;100.00;97788.38;1701947;75;758610;-72
2023/05/30 03:38:38;;;;;;;2.70;2.10;;;;;;;10.30;100.00;97792.94;1711999;75;675719;-68
2023/05/30 03:41:10;;;;;;;2.25;2.05;;;;;;;10.25;100.00;97788.84;1702410;75;752653;-69
2023/05/30 03:43:43;;;;;;;2.35;1.75;;;;;;;10.28;100.00;97792.63;1709919;75;871937;-69
2023/05/30 03:46:17;;;;;;;2.00;1.80;;;;;;;10.29;100.00;97799.63;1699667;75;981907;-69
2023/05/30 03:48:47;;;;;;;2.70;1.95;;;;;;;10.26;100.00;97797.81;1711977;75;681181;-69
2023/05/30 03:51:18;;;;;;;2.30;2.00;;;;;;;10.33;100.00;97800.19;1701911;75;757829;-69
2023/05/30 03:53:49;;;;;;;2.30;1.60;;;;;;;10.37;100.00;97798.78;1696800;75;1890392;-69
2023/05/30 03:56:19;;;;;;;2.40;1.95;;;;;;;10.35;100.00;97800.50;1702479;75;749417;-73
2023/05/30 03:58:49;;;;;;;3.05;2.50;;;;;;;10.26;100.00;97800.53;1711037;75;679231;-70
2023/05/30 04:01:22;;;;;;;2.50;2.00;;;;;;;10.29;100.00;97802.34;1702479;75;757689;-71
2023/05/30 04:03:52;;;;;;;3.10;2.60;;;;;;;10.33;100.00;97800.94;1707884;75;952377;-71
2023/05/30 04:06:24;;;;;;;4.00;2.85;;;;;;;10.34;100.00;97798.97;1701678;75;750518;-72
2023/05/30 04:08:54;;;;;;;3.25;2.55;;;;;;;10.46;100.00;97803.41;1710548;75;672169;-71
2023/05/30 04:11:24;;;;;;;10.85;9.35;;;;;;;10.48;100.00;97814.66;1702130;75;759757;-69
2023/05/30 04:13:55;;;;;;;12.55;10.00;;;;;;;10.45;100.00;97810.88;1710505;75;673970;-72
2023/05/30 04:16:27;;;;;;;10.15;7.00;;;;;;;10.50;100.00;97812.19;1701402;75;746258;-70
2023/05/30 04:18:58;;;;;;;8.50;6.60;;;;;;;10.54;100.00;97822.97;1711439;75;675298;-71
2023/05/30 04:21:28;;;;;;;7.20;5.80;;;;;;;10.60;100.00;97823.81;1698122;75;983516;-72
2023/05/30 04:23:59;;;;;;;11.70;10.50;;;;;;;10.67;100.00;97820.69;1711026;75;670138;-70
2023/05/30 04:26:29;;;;;;;6.95;5.90;;;;;;;10.71;100.00;97826.75;1702536;75;732242;-73
2023/05/30 04:28:59;;;;;;;5.90;4.45;;;;;;;10.86;100.00;97818.53;1710916;75;672951;-71
2023/05/30 04:31:32;;;;;;;5.10;3.75;;;;;;;10.92;100.00;97815.88;1700204;75;796374;-72
2023/05/30 04:34:02;;;;;;;5.40;4.10;;;;;;;11.02;100.00;97825.50;1710292;75;673074;-71
2023/05/30 04:36:36;;;;;;;4.65;3.90;;;;;;;11.12;100.00;97823.41;1701167;75;770546;-70
2023/05/30 04:39:06;;;;;;;5.60;4.50;;;;;;;11.15;100.00;97822.47;1710531;75;698927;-69
2023/05/30 04:41:40;;;;;;;4.65;3.65;;;;;;;11.24;100.00;97825.09;1701660;75;744478;-70
2023/05/30 04:44:10;;;;;;;6.30;3.80;;;;;;;11.23;100.00;97821.59;1710231;75;678844;-70
2023/05/30 04:46:46;;;;;;;3.75;2.90;;;;;;;11.38;100.00;97816.06;1700845;75;765683;-71
2023/05/30 04:49:17;;;;;;;3.80;2.40;;;;;;;11.50;100.00;97820.47;1703537;75;683684;-71
2023/05/30 04:51:47;;;;;;;2.80;2.40;;;;;;;11.59;100.00;97813.34;1711073;75;678857;-70
2023/05/30 04:54:17;;;;;;;3.00;2.40;;;;;;;11.68;100.00;97821.44;1701578;75;743113;-73
2023/05/30 04:56:47;;;;;;;3.70;2.65;;;;;;;11.83;100.00;97811.16;1710812;75;685933;-71
2023/05/30 04:59:18;;;;;;;14.05;6.00;;;;;;;12.12;100.00;97818.53;1701461;75;817600;-70
2023/05/30 05:01:52;;;;;;;7.60;5.80;;;;;;;12.43;100.00;97814.34;1710533;75;681455;-71
2023/05/30 05:04:22;;;;;;;6.60;5.30;;;;;;;12.49;100.00;97815.16;1688199;75;1857661;-72
2023/05/30 05:06:52;;;;;;;6.90;4.80;;;;;;;12.58;100.00;97822.50;1708999;75;821770;-69
2023/05/30 05:09:24;;;;;;;4.80;4.00;;;;;;;12.73;100.00;97817.63;1702692;75;727873;-73
2023/05/30 05:11:54;;;;;;;12.40;6.90;;;;;;;13.22;100.00;97821.25;1710678;75;696837;-74
2023/05/30 05:14:24;;;;;;;8.60;7.50;;;;;;;13.41;100.00;97818.91;1675561;75;2944845;-71
2023/05/30 05:16:57;;;;;;;10.40;6.20;;;;;;;13.74;100.00;97814.09;1710217;75;689488;-69
2023/05/30 05:19:27;;;;;;;8.50;5.85;;;;;;;13.87;100.00;97819.88;1702395;75;684092;-69
2023/05/30 05:21:58;;;;;;;6.50;5.40;;;;;;;13.90;100.00;97824.38;1710045;75;685279;-69
2023/05/30 05:24:28;;;;;;;6.70;5.10;;;;;;;14.06;100.00;97817.47;1701139;75;848342;-69
2023/05/30 05:26:58;;;;;;;7.70;5.60;;;;;;;14.24;100.00;97824.53;1709113;75;756699;-70
2023/05/30 05:29:28;;;;;;;8.60;5.90;;;;;;;14.46;99.07;97821.81;1702574;75;679874;-69
2023/05/30 05:32:01;;;;;;;9.55;6.35;;;;;;;14.53;97.06;97817.06;1710078;75;679430;-70
2023/05/30 05:34:31;;;;;;;8.70;6.50;;;;;;;14.69;96.42;97822.63;1701742;75;737086;-72
2023/05/30 05:37:01;;;;;;;17.90;7.35;;;;;;;14.71;90.70;97816.63;1710202;75;680359;-71
2023/05/30 05:39:31;;;;;;;10.45;6.10;;;;;;;14.93;88.42;97821.38;1699290;75;938847;-73
2023/05/30 05:42:02;;;;;;;14.40;6.50;;;;;;;15.18;90.64;97819.63;1710101;75;702682;-69
2023/05/30 05:44:33;;;;;;;7.60;5.60;;;;;;;15.27;90.14;97824.91;1702177;75;686050;-72
2023/05/30 05:47:06;;;;;;;9.80;6.00;;;;;;;15.20;84.79;97822.66;1702918;75;690584;-69
2023/05/30 05:49:36;;;;;;;11.30;6.40;;;;;;;15.49;86.45;97828.84;1701440;75;812342;-72
2023/05/30 05:52:09;;;;;;;8.10;5.70;;;;;;;15.71;85.59;97825.34;1710403;75;696163;-71
2023/05/30 05:54:40;;;;;;;10.30;6.30;;;;;;;15.74;82.86;97827.81;1700853;75;686931;-70
2023/05/30 05:57:11;;;;;;;12.50;5.50;;;;;;;15.68;79.99;97832.59;1710061;75;705719;-68
2023/05/30 05:59:41;;;;;;;7.95;5.40;;;;;;;15.94;78.94;97826.72;1687723;75;1851372;-68
2023/05/30 06:02:14;;;;;;;8.55;5.65;;;;;;;16.12;80.57;97828.19;1710137;75;705364;-71
2023/05/30 06:04:45;;;;;;;7.80;5.90;;;;;;;16.01;81.11;97833.00;1702298;75;731725;-69
2023/05/30 06:07:16;;;;;;;10.35;5.45;;;;;;;16.25;79.01;97837.91;1710798;75;675939;-72
2023/05/30 06:09:46;;;;;;;10.05;5.50;;;;;;;16.34;76.39;97837.63;1701819;75;725690;-74
2023/05/30 06:12:16;;;;;;;9.80;5.85;;;;;;;16.43;75.37;97839.31;1711251;75;685240;-70
2023/05/30 06:14:47;;;;;;;9.10;5.35;;;;;;;16.50;74.06;97842.31;1701526;75;764631;-71
2023/05/30 06:17:19;;;;;;;8.40;5.00;;;;;;;16.68;73.85;97835.41;1710888;75;679501;-69
2023/05/30 06:19:50;;;;;;;18.00;14.15;;;;;;;16.89;72.83;97844.06;1701567;75;738347;-68
2023/05/30 06:22:20;;;;;;;8.05;6.00;;;;;;;16.93;74.54;97844.56;1711116;75;681575;-70
2023/05/30 06:24:51;;;;;;;9.45;5.70;;;;;;;16.92;72.53;97839.53;1701119;75;752655;-69
2023/05/30 06:27:21;;;;;;;5.60;4.10;;;;;;;17.10;72.81;97843.66;1710209;75;688906;-68
2023/05/30 06:29:51;;;;;;;5.45;3.85;;;;;;;17.21;72.20;97849.84;1699158;75;862087;-70
2023/05/30 06:32:24;;;;;;;7.35;4.95;;;;;;;17.37;70.44;97856.50;1707720;75;896709;-71
2023/05/30 06:34:54;;;;;;;7.65;4.60;;;;;;;17.27;67.80;97849.81;1701690;75;747405;-73
2023/05/30 06:37:24;;;;;;;6.20;4.25;;;;;;;17.50;68.03;97852.38;1710901;75;676030;-70
2023/05/30 06:39:54;;;;;;;6.85;4.55;;;;;;;17.70;67.67;97849.13;1702603;75;719878;-72
2023/05/30 06:42:25;;;;;;;4.60;3.45;;;;;;;17.77;67.13;97845.03;1710645;75;697654;-70
2023/05/30 06:44:55;;;;;;;6.45;4.30;;;;;;;17.96;66.37;97851.38;1701434;75;735941;-70
2023/05/30 06:47:28;;;;;;;6.95;3.30;;;;;;;18.09;66.11;97853.53;1710798;75;670333;-68
2023/05/30 06:49:58;;;;;;;8.70;4.60;;;;;;;18.15;65.61;97853.44;1698794;75;931189;-68
2023/05/30 06:52:28;;;;;;;6.30;3.70;;;;;;;18.40;65.65;97852.13;1710636;75;670377;-69
2023/05/30 06:54:58;;;;;;;8.35;4.10;;;;;;;18.42;65.00;97866.19;1700439;75;758153;-69
2023/05/30 06:57:29;;;;;;;8.00;4.40;;;;;;;18.52;64.78;97858.25;1710671;75;679855;-70
2023/05/30 06:59:59;;;;;;;5.60;4.30;;;;;;;18.58;63.71;97855.41;1701872;75;738266;-71
2023/05/30 07:02:32;;;;;;;8.30;4.65;;;;;;;18.60;63.31;97858.41;1708835;75;920462;-68
2023/05/30 07:05:02;;;;;;;9.70;4.30;;;;;;;18.80;63.27;97855.09;1701286;75;753918;-72
2023/05/30 07:07:32;;;;;;;7.50;4.10;;;;;;;18.92;62.71;97859.19;1707625;75;991242;-72
2023/05/30 07:10:02;;;;;;;6.60;3.75;;;;;;;18.97;61.28;97852.06;1702210;75;737635;-71
2023/05/30 07:12:33;;;;;;;5.95;4.00;;;;;;;19.08;60.56;97859.47;1710407;75;679838;-68
2023/05/30 07:15:03;;;;;;;10.05;4.65;;;;;;;19.11;63.88;97848.06;1701420;75;733066;-71
2023/05/30 07:17:36;;;;;;;8.20;4.70;;;;;;;19.39;65.04;97855.16;1710035;75;681547;-71
2023/05/30 07:20:08;;;;;;;5.10;3.60;;;;;;;19.61;61.14;97853.28;1688687;75;1777958;-69
2023/05/30 07:22:39;;;;;;;7.40;4.10;;;;;;;19.86;59.87;97840.69;1710532;75;677519;-71
2023/05/30 07:25:11;;;;;;;6.40;4.05;;;;;;;19.93;60.01;97844.84;1700994;75;746610;-70
2023/05/30 07:27:41;;;;;;;6.10;3.70;;;;;;;20.04;59.96;97841.13;1710576;75;682277;-68
2023/05/30 07:30:13;;;;;;;9.65;4.40;;;;;;;19.98;58.30;97838.44;1700719;75;797872;-69
2023/05/30 07:32:45;;;;;;;10.00;5.10;;;;;;;19.96;58.85;97841.00;1710186;75;673861;-70
2023/05/30 07:35:16;;;;;;;7.35;4.50;;;;;;;20.22;58.68;97834.66;1701851;75;752582;-68
2023/05/30 07:37:46;;;;;;;6.80;4.55;;;;;;;20.35;59.05;97833.91;1709506;75;720769;-72
2023/05/30 07:40:17;;;;;;;6.35;4.20;;;;;;;20.42;55.34;97836.75;1700891;75;745730;-69
2023/05/30 07:42:48;;;;;;;6.40;3.25;;;;;;;20.72;55.19;97837.66;1693635;75;1985190;-73
2023/05/30 07:45:20;;;;;;;4.90;3.05;;;;;;;20.87;54.49;97828.72;1702048;75;758673;-71
2023/05/30 07:47:53;;;;;;;6.70;3.50;;;;;;;21.00;55.19;97826.63;1707965;75;824749;-67
2023/05/30 07:50:23;;;;;;;5.95;3.65;;;;;;;20.96;53.82;97831.03;1701724;75;750734;-71
2023/05/30 07:52:53;;;;;;;4.70;3.30;;;;;;;21.16;52.82;97827.47;1710401;75;668839;-69
2023/05/30 07:55:23;;;;;;;4.45;2.90;;;;;;;21.32;51.03;97833.19;1701508;75;755593;-73
2023/05/30 07:57:53;;;;;;;7.60;3.00;;;;;;;21.42;51.90;97825.84;1709973;75;677434;-70
2023/05/30 08:00:24;;;;;;;4.40;3.10;;;;;;;21.30;51.61;97821.84;1702127;75;737633;-69
2023/05/30 08:02:57;;;;;;;6.20;3.30;;;;;;;21.16;50.22;97827.47;1709753;75;690234;-73
2023/05/30 08:05:27;;;;;;;8.10;3.65;;;;;;;21.23;49.68;97824.00;1701896;75;744806;-71
2023/05/30 08:07:57;;;;;;;5.75;3.50;;;;;;;21.33;49.34;97827.06;1709539;75;690133;-70
2023/05/30 08:10:27;;;;;;;4.70;2.65;;;;;;;21.64;49.15;97830.81;1701071;75;754478;-69
2023/05/30 08:12:57;;;;;;;4.35;3.15;;;;;;;21.22;49.35;97833.66;1710608;75;670361;-70
2023/05/30 08:15:28;;;;;;;4.20;3.15;;;;;;;21.38;50.09;97836.56;1701166;75;752852;-72
2023/05/30 08:18:02;;;;;;;6.50;3.50;;;;;;;21.25;49.58;97823.47;1710704;75;677426;-70
2023/05/30 08:20:35;;;;;;;6.20;3.55;;;;;;;21.38;49.85;97823.41;1703017;75;725502;-69
2023/05/30 08:23:06;;;;;;;3.80;3.00;;;;;;;21.62;50.01;97827.09;1710472;75;673635;-71
2023/05/30 08:25:42;;;;;;;5.65;2.85;;;;;;;21.86;49.47;97823.16;1701583;75;737499;-71
2023/05/30 08:28:13;;;;;;;5.00;3.00;;;;;;;21.79;48.10;97818.28;1702863;75;678032;-69
2023/05/30 08:30:48;;;;;;;4.90;2.70;;;;;;;22.03;47.88;97823.44;1711126;75;675714;-72
2023/05/30 08:33:23;;;;;;;4.60;3.40;;;;;;;21.61;47.33;97825.59;1622170;75;7514810;-69
2023/05/30 08:35:53;;;;;;;10.90;3.50;;;;;;;21.69;48.23;97818.81;1710940;75;680000;-71
2023/05/30 08:38:23;;;;;;;5.40;3.40;;;;;;;21.58;47.33;97821.13;1701269;75;692496;-71
2023/05/30 08:40:56;;;;;;;5.80;2.90;;;;;;;21.37;46.13;97819.09;1707365;75;904926;-73
2023/05/30 08:43:26;;;;;;;5.45;3.05;;;;;;;21.58;47.08;97816.31;1702248;75;680354;-67
2023/05/30 08:45:57;;;;;;;4.55;2.80;;;;;;;21.85;47.78;97816.84;1711044;75;673189;-68
2023/05/30 08:48:34;;;;;;;7.50;3.40;;;;;;;22.05;48.52;97822.88;1701948;75;687860;-71
2023/05/30 08:51:06;;;;;;;3.65;2.40;;;;;;;22.43;47.72;97813.94;1710268;75;678744;-70
2023/05/30 08:53:45;;;;;;;3.80;2.70;;;;;;;22.30;46.87;97812.03;1699307;75;987560;-70
2023/05/30 08:56:22;;;;;;;3.70;2.50;;;;;;;22.60;46.80;97807.84;1702814;75;674577;-72
2023/05/30 08:58:54;;;;;;;7.00;3.20;;;;;;;22.89;46.76;97814.00;1709316;75;670999;-72
2023/05/30 09:01:25;;;;;;;4.60;3.10;;;;;;;22.69;45.66;97818.47;1702216;75;676863;-70
2023/05/30 09:03:59;;;;;;;8.00;3.20;;;;;;;22.76;47.10;97810.09;1708318;75;867735;-73
2023/05/30 09:06:30;;;;;;;4.10;3.20;;;;;;;22.88;46.60;97816.06;1702416;75;675570;-70
2023/05/30 09:09:01;;;;;;;5.20;2.50;;;;;;;22.85;43.21;97810.84;1709807;75;671390;-69
2023/05/30 09:11:32;;;;;;;4.15;2.45;;;;;;;23.03;41.93;97809.78;1702830;75;679035;-70
2023/05/30 09:14:03;;;;;;;6.10;3.60;;;;;;;23.34;42.80;97809.78;1710844;75;676968;-72
2023/05/30 09:16:34;;;;;;;4.60;2.90;;;;;;;23.60;41.50;97805.81;1698710;75;953613;-75
2023/05/30 09:19:07;;;;;;;4.80;2.50;;;;;;;22.79;41.41;97799.88;1710574;75;671324;-70
2023/05/30 09:21:38;;;;;;;5.35;2.90;;;;;;;22.72;41.92;97804.13;1702137;75;749043;-70
2023/05/30 09:24:09;;;;;;;4.90;2.70;;;;;;;22.86;41.57;97803.97;1710526;75;672664;-68
2023/05/30 09:26:39;;;;;;;4.80;2.40;;;;;;;23.23;40.40;97807.34;1700172;75;749239;-70
2023/05/30 09:29:13;;;;;;;3.40;2.40;;;;;;;23.26;40.58;97807.00;1707033;75;686261;-73
2023/05/30 09:31:45;;;;;;;2.15;1.50;;;;;;;23.73;41.08;97805.63;1701116;75;745159;-75
2023/05/30 09:34:22;;;;;;;5.40;2.80;;;;;;;22.82;40.49;97795.94;1710023;75;678009;-72
2023/05/30 09:36:59;;;;;;;5.40;2.15;;;;;;;23.41;41.48;97799.91;1701193;75;750023;-70
2023/05/30 09:39:29;;;;;;;3.70;2.50;;;;;;;23.67;41.03;97799.47;1702069;75;679371;-68
2023/05/30 09:42:00;;;;;;;3.50;2.10;;;;;;;23.85;38.49;97794.78;1709810;75;671744;-71
2023/05/30 09:44:30;;;;;;;4.20;2.45;;;;;;;23.71;38.53;97797.03;1701788;75;676405;-71
2023/05/30 09:47:01;;;;;;;2.45;1.90;;;;;;;23.95;39.09;97804.06;1694085;75;1980318;-68
2023/05/30 09:49:36;;;;;;;2.70;1.80;;;;;;;24.02;39.18;97805.34;1701515;75;680744;-70
2023/05/30 09:52:08;;;;;;;2.40;1.70;;;;;;;24.02;38.91;97813.75;1709691;75;678709;-72
2023/05/30 09:54:38;;;;;;;2.40;1.80;;;;;;;24.17;39.31;97813.69;1701810;75;723031;-72
2023/05/30 09:57:09;;;;;;;2.70;1.80;;;;;;;23.99;39.81;97809.28;1709229;75;679136;-70
2023/05/30 09:59:41;;;;;;;3.10;1.60;;;;;;;24.39;39.55;97816.94;1700449;75;834870;-74
2023/05/30 10:02:13;;;;;;;2.70;2.00;;;;;;;24.37;40.75;97809.13;1709787;75;677598;-70
2023/05/30 10:04:48;;;;;;;5.70;2.30;;;;;;;24.48;39.87;97810.75;1701673;75;678468;-69
2023/05/30 10:07:21;;;;;;;4.15;2.35;;;;;;;24.63;40.04;97818.34;1709291;75;671265;-69
2023/05/30 10:09:53;;;;;;;4.20;2.50;;;;;;;24.54;40.36;97807.75;1701940;75;678538;-71
2023/05/30 10:12:24;;;;;;;4.80;2.90;;;;;;;24.48;39.87;97810.03;1709842;75;676068;-70
2023/05/30 10:14:54;;;;;;;3.40;2.30;;;;;;;24.26;39.46;97806.75;1700867;75;753980;-71
2023/05/30 10:17:28;;;;;;;4.25;2.50;;;;;;;24.37;40.19;97809.13;1709506;75;676314;-71
2023/05/30 10:20:07;;;;;;;5.35;2.40;;;;;;;24.43;39.51;97808.91;1701637;75;745673;-70
2023/05/30 10:22:46;;;;;;;3.45;2.20;;;;;;;25.09;39.83;97804.03;1701866;75;681166;-70
2023/05/30 10:25:18;;;;;;;3.00;2.10;;;;;;;25.19;39.53;97802.09;1706864;75;743744;-70
2023/05/30 10:27:52;;;;;;;2.65;2.10;;;;;;;25.19;40.12;97802.09;1700481;75;682357;-70
2023/05/30 10:30:28;;;;;;;4.30;2.20;;;;;;;24.80;38.77;97798.81;1706616;75;988358;-69
2023/05/30 10:33:07;;;;;;;3.00;2.10;;;;;;;25.31;38.42;97804.44;1688515;75;1812922;-72
2023/05/30 10:35:41;;;;;;;7.70;2.20;;;;;;;25.03;39.24;97801.44;1701616;75;674357;-68
2023/05/30 10:38:14;;;;;;;3.50;2.80;;;;;;;25.24;38.78;97797.56;1709821;75;673808;-68
2023/05/30 10:40:57;;;;;;;3.75;2.50;;;;;;;25.19;37.22;97804.16;1701551;75;705596;-71
2023/05/30 10:43:47;;;;;;;7.10;3.10;;;;;;;25.07;38.92;97798.25;1709728;75;672606;-70
2023/05/30 10:46:28;;;;;;;4.10;2.90;;;;;;;24.95;38.48;97795.16;1700387;75;757394;-70
2023/05/30 10:49:06;;;;;;;3.35;2.35;;;;;;;25.06;37.55;97797.50;1701313;75;676436;-70
2023/05/30 10:52:04;;;;;;;2.60;1.80;;;;;;;25.08;38.18;97794.84;1708818;75;774739;-70
2023/05/30 10:54:36;;;;;;;3.50;2.00;;;;;;;25.02;38.30;97788.03;1700969;75;758255;-75
2023/05/30 10:57:31;;;;;;;8.00;3.05;;;;;;;23.73;39.39;97788.09;1708306;75;681511;-71
2023/05/30 11:00:10;;;;;;;4.05;2.15;;;;;;;25.12;39.82;97783.25;1700305;75;756557;-70
2023/05/30 11:02:43;;;;;;;4.25;2.65;;;;;;;25.40;37.82;97784.16;1701571;75;674120;-72
2023/05/30 11:05:14;;;;;;;4.85;2.35;;;;;;;25.77;37.08;97781.53;1709651;75;671439;-67
2023/05/30 11:07:47;;;;;;;3.60;2.10;;;;;;;25.61;36.71;97783.75;1700225;75;720403;-72
2023/05/30 11:10:26;;;;;;;2.55;1.95;;;;;;;25.98;37.03;97779.06;1709625;75;680445;-70
2023/05/30 11:13:09;;;;;;;4.25;2.10;;;;;;;26.23;36.37;97778.94;1701004;75;679752;-68
2023/05/30 11:15:45;;;;;;;3.20;2.00;;;;;;;26.14;36.58;97774.00;1701020;75;676679;-74
2023/05/30 11:18:19;;;;;;;4.30;2.40;;;;;;;26.16;37.17;97773.44;1709333;75;683992;-73
2023/05/30 11:20:57;;;;;;;3.90;2.00;;;;;;;26.62;36.87;97759.50;1701573;75;680304;-73
2023/05/30 11:23:30;;;;;;;3.20;2.20;;;;;;;26.71;36.12;97766.50;1709874;75;673475;-72
2023/05/30 11:26:02;;;;;;;3.50;2.20;;;;;;;26.47;36.11;97760.47;1701813;75;684907;-70
2023/05/30 11:28:37;;;;;;;4.00;2.60;;;;;;;26.70;35.25;97762.97;1709010;75;670882;-71
2023/05/30 11:31:21;;;;;;;6.30;2.75;;;;;;;26.63;35.24;97752.59;1700756;75;751959;-71
2023/05/30 11:33:52;;;;;;;4.20;2.50;;;;;;;26.86;35.44;97760.63;1702352;75;675707;-71
2023/05/30 11:36:24;;;;;;;4.55;3.10;;;;;;;26.84;34.96;97756.94;1710151;75;674877;-70
2023/05/30 11:39:00;;;;;;;2.20;1.80;;;;;;;27.51;34.91;97759.19;1701423;75;678278;-71
2023/05/30 11:41:30;;;;;;;3.90;2.45;;;;;;;26.54;35.85;97753.28;1709327;75;672981;-72
2023/05/30 11:44:00;;;;;;;3.30;2.40;;;;;;;27.19;34.31;97761.06;1701750;75;684827;-71
2023/05/30 11:46:30;;;;;;;3.40;2.50;;;;;;;27.44;33.25;97760.06;1709280;75;688760;-71